Elwood, Indiana
Current Conditions -  °F | °C
As of 11:55 AM on Friday 28 Nov 2014 (Local Time) from KOKK Reporting Station
Few Clouds Few Clouds  
Wind Chill: -8°   Ceiling: Unl
Heat Index: -3°   Visibility: 10mi
Dew Point: -8°   Wind: 10mph
Humidity: 69%   Direction: 200°SSW
Pressure: 30.28"   Gusts: NA
Location:  40.28°N, 85.82°W
Report Text: KOKK 281655Z AUTO 20009KT 10SM FEW120 M03/M08 A3028 RMK AO1
Loading
Personal Weather Stations






























Interactive Weather Map New forecast layout! Learn more

10-Day Weather Forecast

Advertisements
Track Severe Weather on mobile